createdAt,value
2019-04-10T00:00:49.329Z,76.34
2019-04-10T00:01:49.506Z,76.36
2019-04-10T00:02:50.150Z,76.43
2019-04-10T00:03:50.992Z,76.56
2019-04-10T00:04:51.666Z,76.40
2019-04-10T00:05:52.067Z,76.32
2019-04-10T00:06:52.205Z,75.83
2019-04-10T00:07:53.518Z,75.74
2019-04-10T00:08:53.260Z,76.11
2019-04-10T00:09:55.143Z,76.63
2019-04-10T00:10:54.482Z,76.42
2019-04-10T00:11:56.991Z,76.46
2019-04-10T00:12:56.179Z,76.41
2019-04-10T00:13:56.499Z,76.38
2019-04-10T00:14:58.820Z,76.00
2019-04-10T00:15:59.034Z,76.03
2019-04-10T00:16:58.122Z,76.04
2019-04-10T00:17:59.898Z,76.33
2019-04-10T00:18:59.331Z,76.05
2019-04-10T00:20:00.862Z,76.01
2019-04-10T00:21:01.336Z,76.18
2019-04-10T00:21:09.878Z,76.04
2019-04-10T00:22:11.756Z,76.01
2019-04-10T00:23:11.288Z,75.33
2019-04-10T00:24:13.554Z,75.66
2019-04-10T00:25:12.717Z,76.04
2019-04-10T00:26:13.430Z,75.97
2019-04-10T00:27:16.585Z,76.30
2019-04-10T00:28:15.098Z,75.72
2019-04-10T00:29:16.207Z,75.81
2019-04-10T00:30:16.974Z,75.77
2019-04-10T00:31:17.905Z,75.58
2019-04-10T00:32:17.028Z,75.67
2019-04-10T00:33:18.871Z,75.82
2019-04-10T00:34:18.084Z,75.66
2019-04-10T00:35:19.800Z,75.29
2019-04-10T00:36:20.392Z,75.39
2019-04-10T00:37:26.737Z,75.77
2019-04-10T00:38:20.588Z,75.19
2019-04-10T00:39:22.405Z,75.59
2019-04-10T00:40:23.586Z,76.06
2019-04-10T00:41:23.769Z,75.80
2019-04-10T00:42:23.473Z,75.23
2019-04-10T00:43:24.933Z,75.27
2019-04-10T00:44:25.866Z,75.21
2019-04-10T00:45:25.190Z,75.28
2019-04-10T00:46:26.324Z,75.72
2019-04-10T00:47:26.733Z,75.80
2019-04-10T00:48:26.724Z,76.08
2019-04-10T00:49:29.352Z,76.01
2019-04-10T00:50:28.684Z,75.85
2019-04-10T00:51:28.436Z,76.59
2019-04-10T00:52:30.380Z,76.91
2019-04-10T00:53:29.639Z,76.94
2019-04-10T00:54:30.957Z,77.16
2019-04-10T00:55:30.678Z,76.61
2019-04-10T00:56:32.616Z,76.30
2019-04-10T00:57:31.707Z,77.14
2019-04-10T00:58:33.288Z,77.00
2019-04-10T00:59:34.467Z,77.32
2019-04-10T01:00:36.309Z,77.51
2019-04-10T01:01:34.116Z,77.80
2019-04-10T01:02:34.607Z,76.75
2019-04-10T01:03:36.137Z,76.20
2019-04-10T01:04:36.582Z,76.50
2019-04-10T01:05:37.659Z,76.80
2019-04-10T01:06:36.170Z,76.69
2019-04-10T01:07:41.184Z,76.83
2019-04-10T01:08:37.258Z,76.12
2019-04-10T01:09:39.663Z,76.17
2019-04-10T01:10:38.785Z,76.54
2019-04-10T01:11:39.254Z,76.28
2019-04-10T01:12:40.514Z,76.27
2019-04-10T01:13:41.113Z,76.21
2019-04-10T01:14:40.595Z,76.01
2019-04-10T01:15:42.715Z,75.50
2019-04-10T01:16:41.845Z,75.43
2019-04-10T01:17:42.388Z,75.51
2019-04-10T01:18:43.591Z,75.00
2019-04-10T01:19:43.953Z,75.36
2019-04-10T01:20:43.932Z,75.44
2019-04-10T01:21:46.432Z,75.79
2019-04-10T01:22:45.561Z,75.79
2019-04-10T01:23:46.792Z,75.45
2019-04-10T01:24:46.421Z,74.92
2019-04-10T01:25:48.425Z,75.22
2019-04-10T01:26:47.727Z,75.67
2019-04-10T01:27:50.053Z,75.43
2019-04-10T01:28:49.233Z,75.87
2019-04-10T01:29:49.647Z,75.90
2019-04-10T01:30:50.722Z,76.39
2019-04-10T01:31:51.275Z,76.54
2019-04-10T01:32:50.969Z,76.44
2019-04-10T01:33:52.740Z,76.50
2019-04-10T01:34:51.852Z,76.13
2019-04-10T01:35:52.399Z,75.16
2019-04-10T01:36:54.573Z,75.22
2019-04-10T01:37:57.830Z,74.92
2019-04-10T01:38:54.246Z,75.39
2019-04-10T01:39:56.890Z,75.31
2019-04-10T01:40:55.459Z,75.29
2019-04-10T01:41:03.993Z,75.80
2019-04-10T01:42:06.144Z,75.81
2019-04-10T01:43:11.460Z,76.12
2019-04-10T01:44:05.781Z,74.98
2019-04-10T01:45:06.718Z,75.10
2019-04-10T01:46:08.441Z,75.71
2019-04-10T01:47:08.013Z,75.91
2019-04-10T01:48:10.024Z,75.35
2019-04-10T01:49:09.283Z,75.76
2019-04-10T01:50:10.455Z,75.97
2019-04-10T01:51:10.807Z,76.74
2019-04-10T01:52:10.931Z,76.94
2019-04-10T01:53:13.415Z,77.50
2019-04-10T01:54:13.067Z,76.53
2019-04-10T01:55:20.301Z,75.90
2019-04-10T01:56:22.984Z,75.76
2019-04-10T01:57:14.663Z,75.65
2019-04-10T01:58:14.872Z,75.72
2019-04-10T01:59:15.916Z,76.03
2019-04-10T02:00:15.845Z,75.53
2019-04-10T02:01:18.546Z,75.61
2019-04-10T02:02:17.079Z,76.31
2019-04-10T02:03:18.668Z,76.56
2019-04-10T02:04:19.546Z,76.24
2019-04-10T02:05:18.960Z,76.13
2019-04-10T02:06:21.041Z,76.51
2019-04-10T02:07:20.398Z,76.84
2019-04-10T02:08:23.576Z,77.54
2019-04-10T02:09:22.090Z,78.06
2019-04-10T02:10:23.909Z,78.52
2019-04-10T02:11:23.951Z,78.23
2019-04-10T02:12:23.928Z,77.51
2019-04-10T02:13:25.563Z,77.94
2019-04-10T02:14:26.081Z,77.74
2019-04-10T02:15:26.607Z,76.92
2019-04-10T02:16:27.287Z,77.18
2019-04-10T02:17:26.884Z,77.71
2019-04-10T02:18:28.479Z,78.23
2019-04-10T02:19:30.150Z,78.25
2019-04-10T02:20:29.167Z,78.64
2019-04-10T02:21:28.782Z,78.76
2019-04-10T02:22:30.842Z,78.68
2019-04-10T02:23:30.291Z,78.81
2019-04-10T02:24:31.345Z,78.64
2019-04-10T02:25:31.424Z,78.89
2019-04-10T02:26:33.846Z,78.68
2019-04-10T02:27:32.477Z,78.67
2019-04-10T02:28:33.896Z,79.01
2019-04-10T02:29:34.345Z,78.81
2019-04-10T02:30:36.888Z,78.62
2019-04-10T02:31:34.564Z,79.35
2019-04-10T02:32:36.962Z,78.93
2019-04-10T02:33:35.648Z,79.02
2019-04-10T02:34:36.933Z,78.77
2019-04-10T02:35:37.836Z,79.45
2019-04-10T02:36:38.148Z,79.95
2019-04-10T02:37:37.554Z,79.61
2019-04-10T02:38:53.207Z,79.68
2019-04-10T02:39:45.859Z,81.46
2019-04-10T02:40:39.203Z,81.65
2019-04-10T02:41:39.307Z,80.79
2019-04-10T02:42:41.237Z,80.48
2019-04-10T02:43:40.430Z,80.19
2019-04-10T02:44:43.902Z,79.98
2019-04-10T02:45:42.472Z,80.37
2019-04-10T02:46:42.308Z,80.51
2019-04-10T02:47:43.314Z,80.95
2019-04-10T02:48:43.792Z,81.24
2019-04-10T02:49:44.652Z,81.29
2019-04-10T02:50:45.073Z,81.13
2019-04-10T02:51:46.152Z,80.81
2019-04-10T02:52:46.117Z,80.96
2019-04-10T02:53:47.737Z,80.37
2019-04-10T02:54:46.601Z,80.92
2019-04-10T02:55:49.336Z,80.92
2019-04-10T02:56:49.469Z,80.00
2019-04-10T02:57:49.823Z,80.34
2019-04-10T02:58:51.314Z,80.33
2019-04-10T02:59:51.102Z,80.18
2019-04-10T03:00:52.499Z,80.15
2019-04-10T03:01:51.880Z,80.08
2019-04-10T03:02:54.906Z,80.82
2019-04-10T03:03:54.825Z,80.20
2019-04-10T03:04:53.353Z,81.11
2019-04-10T03:05:56.531Z,81.56
2019-04-10T03:06:55.543Z,80.15
2019-04-10T03:07:55.988Z,80.03
2019-04-10T03:09:10.823Z,80.41
2019-04-10T03:10:08.953Z,80.27
2019-04-10T03:11:03.570Z,81.09
2019-04-10T03:11:59.437Z,81.75
2019-04-10T03:12:58.876Z,81.57
2019-04-10T03:13:59.277Z,81.17
2019-04-10T03:15:01.044Z,81.95
2019-04-10T03:16:00.175Z,82.60
2019-04-10T03:17:01.878Z,81.98
2019-04-10T03:18:01.357Z,82.53
2019-04-10T03:19:03.281Z,83.48
2019-04-10T03:20:02.756Z,83.30
2019-04-10T03:20:11.299Z,83.43
2019-04-10T03:21:13.705Z,83.46
2019-04-10T03:22:12.444Z,82.54
2019-04-10T03:23:13.521Z,81.85
2019-04-10T03:24:13.917Z,81.64
2019-04-10T03:25:14.928Z,81.26
2019-04-10T03:26:15.350Z,81.05
2019-04-10T03:27:16.290Z,80.89
2019-04-10T03:28:16.688Z,80.90
2019-04-10T03:29:17.740Z,81.00
2019-04-10T03:30:18.474Z,81.53
2019-04-10T03:31:19.886Z,81.71
2019-04-10T03:32:19.356Z,80.46
2019-04-10T03:33:22.660Z,80.46
2019-04-10T03:34:22.360Z,80.42
2019-04-10T03:35:20.776Z,81.04
2019-04-10T03:36:23.236Z,81.56
2019-04-10T03:37:22.361Z,81.20
2019-04-10T03:38:23.646Z,80.87
2019-04-10T03:39:23.730Z,81.13
2019-04-10T03:40:23.848Z,80.86
2019-04-10T03:41:26.125Z,81.59
2019-04-10T03:42:25.278Z,81.55
2019-04-10T03:43:25.818Z,81.73
2019-04-10T03:44:26.985Z,81.24
2019-04-10T03:45:26.510Z,81.21
2019-04-10T03:46:27.691Z,81.44
2019-04-10T03:47:27.431Z,81.69
2019-04-10T03:48:29.320Z,81.93
2019-04-10T03:49:29.637Z,81.82
2019-04-10T03:50:29.985Z,81.22
2019-04-10T03:51:30.338Z,81.00
2019-04-10T03:52:31.531Z,81.44
2019-04-10T03:53:32.077Z,81.14
2019-04-10T03:54:32.233Z,80.78
2019-04-10T03:55:32.705Z,80.78
2019-04-10T03:56:33.897Z,80.92
2019-04-10T03:57:34.377Z,80.95
2019-04-10T03:58:34.014Z,81.60
2019-04-10T03:59:36.017Z,80.92
2019-04-10T04:00:36.270Z,80.91
2019-04-10T04:01:35.571Z,80.83
2019-04-10T04:02:38.080Z,80.71
2019-04-10T04:03:37.086Z,81.08
2019-04-10T04:04:37.674Z,81.67
2019-04-10T04:05:37.590Z,81.42
2019-04-10T04:06:39.832Z,81.15
2019-04-10T04:07:39.004Z,80.47
2019-04-10T04:08:40.653Z,80.53
2019-04-10T04:09:40.145Z,80.37
2019-04-10T04:10:42.616Z,80.69
2019-04-10T04:11:41.971Z,80.75
2019-04-10T04:12:42.583Z,80.46
2019-04-10T04:13:42.585Z,80.46
2019-04-10T04:14:44.261Z,81.10
2019-04-10T04:15:44.406Z,80.97
2019-04-10T04:16:44.000Z,80.90
2019-04-10T04:17:46.504Z,80.98
2019-04-10T04:18:45.670Z,80.97
2019-04-10T04:19:46.276Z,80.96
2019-04-10T04:20:46.045Z,80.67
2019-04-10T04:21:48.148Z,81.01
2019-04-10T04:22:47.568Z,80.77
2019-04-10T04:23:47.902Z,81.08
2019-04-10T04:24:48.426Z,80.98
2019-04-10T04:25:50.452Z,79.88
2019-04-10T04:26:50.707Z,79.72
2019-04-10T04:27:50.059Z,79.73
2019-04-10T04:28:51.648Z,79.19
2019-04-10T04:29:52.430Z,79.38
2019-04-10T04:30:53.786Z,79.53
2019-04-10T04:31:52.632Z,79.22
2019-04-10T04:32:52.601Z,78.58
2019-04-10T04:33:54.340Z,78.58
2019-04-10T04:34:54.278Z,78.43
2019-04-10T04:35:55.153Z,78.30
2019-04-10T04:36:55.817Z,77.79
2019-04-10T04:37:55.820Z,78.34
2019-04-10T04:38:57.796Z,78.57
2019-04-10T04:39:58.295Z,79.20
2019-04-10T04:40:58.338Z,78.55
2019-04-10T04:41:58.786Z,78.92
2019-04-10T04:42:58.531Z,79.70
2019-04-10T04:44:00.129Z,79.79
2019-04-10T04:45:00.858Z,80.49
2019-04-10T04:46:01.185Z,80.50
2019-04-10T04:47:01.341Z,80.02
2019-04-10T04:48:02.923Z,79.90
2019-04-10T04:49:03.572Z,79.32
2019-04-10T04:50:03.613Z,78.85
2019-04-10T04:51:03.714Z,80.23
2019-04-10T04:52:05.292Z,80.20
2019-04-10T04:53:06.672Z,80.78
2019-04-10T04:54:06.708Z,80.22
2019-04-10T04:55:06.317Z,79.92
2019-04-10T04:56:07.934Z,79.92
2019-04-10T04:57:08.634Z,79.87
2019-04-10T04:57:17.044Z,79.92
2019-04-10T04:58:18.081Z,79.87
2019-04-10T04:59:18.429Z,79.54
2019-04-10T05:00:18.449Z,79.47
2019-04-10T05:01:19.460Z,78.61
2019-04-10T05:02:20.393Z,78.97
2019-04-10T05:03:21.131Z,79.43
2019-04-10T05:04:22.814Z,78.76
2019-04-10T05:05:21.383Z,79.25
2019-04-10T05:06:22.850Z,79.39
2019-04-10T05:07:24.719Z,78.82
2019-04-10T05:08:23.900Z,79.57
2019-04-10T05:09:31.217Z,79.18
2019-04-10T05:10:25.231Z,77.04
2019-04-10T05:11:25.312Z,78.65
2019-04-10T05:12:27.699Z,77.42
2019-04-10T05:13:26.509Z,77.67
2019-04-10T05:14:28.062Z,79.09
2019-04-10T05:15:29.021Z,78.73
2019-04-10T05:16:28.377Z,79.15
2019-04-10T05:17:30.965Z,77.81
2019-04-10T05:18:29.571Z,78.08
2019-04-10T05:19:29.752Z,77.40
2019-04-10T05:20:42.224Z,76.08
2019-04-10T05:21:30.522Z,77.50
2019-04-10T05:22:32.046Z,78.68
2019-04-10T05:23:33.119Z,78.60
2019-04-10T05:24:32.409Z,78.40
2019-04-10T05:25:34.521Z,78.54
2019-04-10T05:26:34.295Z,77.77
2019-04-10T05:27:35.032Z,77.11
2019-04-10T05:28:36.211Z,77.19
2019-04-10T05:29:36.691Z,79.16
2019-04-10T05:30:37.694Z,78.27
2019-04-10T05:31:37.364Z,77.19
2019-04-10T05:32:37.698Z,77.57
2019-04-10T05:33:38.685Z,78.82
2019-04-10T05:34:38.562Z,76.90
2019-04-10T05:35:40.211Z,77.32
2019-04-10T05:36:40.703Z,78.10
2019-04-10T05:37:41.139Z,78.41
2019-04-10T05:38:41.930Z,78.64
2019-04-10T05:39:48.761Z,79.16
2019-04-10T05:40:42.419Z,77.70
2019-04-10T05:41:44.234Z,77.98
2019-04-10T05:42:43.146Z,77.85
2019-04-10T05:43:44.871Z,76.19
2019-04-10T05:44:45.455Z,77.64
2019-04-10T05:45:46.501Z,76.01
2019-04-10T05:46:46.529Z,75.11
2019-04-10T05:47:46.616Z,74.16
2019-04-10T05:48:46.874Z,73.61
2019-04-10T05:49:49.166Z,74.54
2019-04-10T05:50:58.167Z,74.11
2019-04-10T05:51:48.793Z,73.60
2019-04-10T05:52:50.486Z,72.74
2019-04-10T05:53:52.761Z,72.08
2019-04-10T05:54:51.568Z,72.12
2019-04-10T05:55:51.768Z,72.75
2019-04-10T05:56:52.625Z,72.48
2019-04-10T05:57:53.193Z,72.01
2019-04-10T05:58:54.597Z,72.23
2019-04-10T05:59:54.655Z,72.01
2019-04-10T06:00:56.824Z,71.61
2019-04-10T06:01:56.827Z,71.94
2019-04-10T06:02:56.726Z,72.70
2019-04-10T06:03:58.544Z,72.10
2019-04-10T06:04:59.984Z,71.40
2019-04-10T06:06:00.957Z,71.42
2019-04-10T06:07:00.975Z,70.82
2019-04-10T06:08:01.291Z,71.04
2019-04-10T06:09:00.512Z,71.26
2019-04-10T06:10:05.545Z,72.25
2019-04-10T06:11:01.340Z,70.97
2019-04-10T06:12:04.093Z,71.02
2019-04-10T06:13:02.525Z,71.13
2019-04-10T06:14:03.158Z,71.44
2019-04-10T06:15:02.473Z,71.49
2019-04-10T06:16:03.557Z,70.35
2019-04-10T06:17:04.366Z,70.85
2019-04-10T06:18:04.989Z,70.61
2019-04-10T06:19:05.206Z,70.11
2019-04-10T06:20:07.192Z,69.59
2019-04-10T06:21:07.044Z,69.64
2019-04-10T06:22:09.527Z,69.77
2019-04-10T06:23:07.583Z,69.66
2019-04-10T06:24:08.008Z,69.06
2019-04-10T06:24:16.558Z,69.13
2019-04-10T06:25:19.542Z,69.11
2019-04-10T06:26:19.676Z,69.30
2019-04-10T06:27:18.853Z,69.68
2019-04-10T06:28:21.331Z,69.43
2019-04-10T06:29:21.138Z,68.70
2019-04-10T06:30:20.960Z,68.62
2019-04-10T06:31:22.929Z,68.76
2019-04-10T06:32:22.415Z,67.75
2019-04-10T06:33:24.352Z,66.15
2019-04-10T06:34:24.833Z,66.52
2019-04-10T06:35:24.361Z,66.60
2019-04-10T06:36:27.103Z,66.70
2019-04-10T06:37:26.237Z,66.31
2019-04-10T06:38:26.660Z,65.66
2019-04-10T06:39:27.012Z,66.00
2019-04-10T06:40:29.063Z,65.52
2019-04-10T06:41:28.440Z,65.90
2019-04-10T06:42:29.521Z,66.40
2019-04-10T06:43:29.405Z,66.36
2019-04-10T06:44:32.183Z,66.21
2019-04-10T06:45:31.575Z,65.83
2019-04-10T06:46:32.609Z,66.48
2019-04-10T06:47:32.452Z,66.59
2019-04-10T06:48:34.226Z,66.69
2019-04-10T06:49:33.371Z,67.03
2019-04-10T06:50:35.047Z,67.55
2019-04-10T06:51:35.512Z,67.33
2019-04-10T06:52:35.703Z,67.61
2019-04-10T06:53:37.870Z,67.00
2019-04-10T06:54:36.725Z,67.24
2019-04-10T06:55:38.618Z,67.65
2019-04-10T06:56:38.223Z,67.30
2019-04-10T06:57:48.088Z,67.24
2019-04-10T06:58:40.918Z,67.59
2019-04-10T06:59:40.252Z,67.62
2019-04-10T07:00:46.672Z,68.14
2019-04-10T07:01:50.459Z,67.96
2019-04-10T07:02:42.275Z,68.01
2019-04-10T07:03:51.823Z,68.13
2019-04-10T07:04:51.200Z,68.03
2019-04-10T07:05:59.684Z,68.12
2019-04-10T07:06:57.339Z,68.04
2019-04-10T07:07:51.265Z,68.50
2019-04-10T07:08:48.881Z,68.28
2019-04-10T07:09:47.267Z,68.13
2019-04-10T07:10:53.649Z,67.83
2019-04-10T07:11:47.907Z,69.22
2019-04-10T07:12:47.909Z,68.69
2019-04-10T07:13:49.393Z,68.52
2019-04-10T07:14:51.506Z,68.16
2019-04-10T07:15:49.803Z,67.60
2019-04-10T07:16:50.735Z,67.91
2019-04-10T07:17:51.333Z,67.82
2019-04-10T07:18:51.975Z,67.91
2019-04-10T07:19:52.039Z,68.19
2019-04-10T07:20:56.354Z,68.31
2019-04-10T07:21:53.752Z,68.57
2019-04-10T07:22:56.693Z,68.26
2019-04-10T07:23:59.396Z,68.12
2019-04-10T07:24:56.368Z,68.47
2019-04-10T07:25:56.417Z,68.15
2019-04-10T07:26:58.113Z,68.62
2019-04-10T07:27:56.793Z,68.17
2019-04-10T07:28:58.901Z,67.19
2019-04-10T07:29:59.797Z,66.91
2019-04-10T07:31:04.665Z,67.03
2019-04-10T07:32:00.441Z,66.63
2019-04-10T07:32:59.360Z,66.69
2019-04-10T07:33:59.980Z,65.89
2019-04-10T07:35:01.258Z,66.29
2019-04-10T07:36:04.246Z,66.39
2019-04-10T07:37:00.776Z,66.19
2019-04-10T07:38:02.445Z,66.16
2019-04-10T07:39:03.437Z,66.63
2019-04-10T07:40:04.244Z,66.27
2019-04-10T07:41:07.132Z,66.53
2019-04-10T07:42:04.162Z,65.96
2019-04-10T07:43:04.275Z,65.71
2019-04-10T07:44:05.872Z,64.64
2019-04-10T07:45:05.481Z,64.57
2019-04-10T07:46:07.171Z,63.42
2019-04-10T07:47:07.263Z,63.96
2019-04-10T07:48:08.696Z,63.49
2019-04-10T07:49:08.540Z,62.56
2019-04-10T07:50:08.894Z,62.80
2019-04-10T07:51:09.082Z,61.87
2019-04-10T07:52:09.202Z,61.92
2019-04-10T07:53:10.924Z,61.36
2019-04-10T07:54:12.006Z,60.64
2019-04-10T07:55:11.466Z,60.89
2019-04-10T07:56:16.168Z,59.88
2019-04-10T07:57:12.580Z,60.43
2019-04-10T07:58:15.253Z,58.91
2019-04-10T07:59:14.026Z,58.09
2019-04-10T08:00:16.008Z,57.09
2019-04-10T08:00:25.111Z,57.40
2019-04-10T08:01:24.935Z,57.47
2019-04-10T08:02:27.584Z,56.88
2019-04-10T08:03:26.275Z,56.95
2019-04-10T08:04:28.997Z,57.18
2019-04-10T08:05:27.423Z,58.52
2019-04-10T08:06:28.879Z,57.61
2019-04-10T08:07:34.183Z,56.12
2019-04-10T08:08:29.974Z,56.07
2019-04-10T08:09:29.815Z,54.88
2019-04-10T08:10:31.308Z,54.74
2019-04-10T08:11:31.893Z,53.98
2019-04-10T08:12:44.825Z,54.38
2019-04-10T08:13:32.999Z,54.72
2019-04-10T08:14:32.546Z,54.58
2019-04-10T08:15:33.656Z,54.42
2019-04-10T08:16:34.879Z,53.71
2019-04-10T08:17:34.595Z,53.47
2019-04-10T08:18:35.181Z,53.11
2019-04-10T08:19:36.918Z,52.79
2019-04-10T08:20:36.565Z,52.14
2019-04-10T08:21:38.171Z,52.87
2019-04-10T08:22:37.603Z,52.21
2019-04-10T08:23:39.046Z,52.33
2019-04-10T08:24:40.522Z,51.97
2019-04-10T08:25:39.166Z,51.93
2019-04-10T08:26:40.989Z,52.18
2019-04-10T08:27:40.254Z,52.96
2019-04-10T08:28:41.765Z,52.68
2019-04-10T08:29:42.856Z,52.15
2019-04-10T08:30:41.956Z,52.40
2019-04-10T08:31:42.215Z,52.61
2019-04-10T08:32:54.720Z,52.00
2019-04-10T08:33:44.111Z,53.45
2019-04-10T08:34:44.279Z,52.71
2019-04-10T08:35:45.359Z,52.59
2019-04-10T08:36:45.722Z,52.90
2019-04-10T08:37:45.446Z,52.85
2019-04-10T08:38:46.671Z,53.00
2019-04-10T08:39:49.159Z,51.73
2019-04-10T08:40:48.228Z,52.16
2019-04-10T08:41:48.312Z,52.37
2019-04-10T08:42:49.890Z,53.16
2019-04-10T08:43:50.357Z,53.84
2019-04-10T08:44:49.907Z,53.33
2019-04-10T08:45:53.559Z,53.51
2019-04-10T08:46:50.939Z,53.61
2019-04-10T08:47:52.951Z,53.67
2019-04-10T08:48:53.853Z,52.99
2019-04-10T08:49:53.553Z,53.08
2019-04-10T08:50:54.909Z,54.02
2019-04-10T08:51:55.609Z,54.90
2019-04-10T08:52:55.758Z,55.25
2019-04-10T08:53:56.839Z,54.59
2019-04-10T08:54:57.525Z,54.43
2019-04-10T08:55:56.880Z,53.64
2019-04-10T08:56:58.695Z,53.91
2019-04-10T08:58:00.656Z,53.54
2019-04-10T08:58:59.400Z,52.59
2019-04-10T09:00:00.898Z,53.52
2019-04-10T09:01:01.309Z,52.79
2019-04-10T09:02:02.081Z,52.69
2019-04-10T09:03:02.698Z,53.32
2019-04-10T09:04:03.608Z,53.66
2019-04-10T09:05:03.641Z,52.46
2019-04-10T09:06:03.449Z,52.88
2019-04-10T09:07:05.742Z,51.90
2019-04-10T09:08:04.900Z,52.83
2019-04-10T09:09:06.311Z,52.87
2019-04-10T09:10:06.962Z,53.08
2019-04-10T09:11:07.126Z,53.12
2019-04-10T09:12:07.278Z,53.25
2019-04-10T09:13:08.390Z,52.13
2019-04-10T09:14:08.670Z,52.81
2019-04-10T09:15:09.705Z,52.88
2019-04-10T09:16:09.941Z,53.11
2019-04-10T09:17:09.720Z,53.22
2019-04-10T09:18:11.353Z,53.31
2019-04-10T09:19:11.955Z,52.68
2019-04-10T09:20:11.400Z,52.66
2019-04-10T09:21:13.316Z,51.53
2019-04-10T09:21:21.652Z,51.24
2019-04-10T09:22:22.564Z,51.24
2019-04-10T09:23:33.082Z,51.65
2019-04-10T09:24:23.772Z,52.05
2019-04-10T09:25:24.821Z,51.98
2019-04-10T09:26:24.551Z,51.90
2019-04-10T09:27:24.844Z,51.04
2019-04-10T09:28:26.450Z,51.59
2019-04-10T09:29:25.909Z,50.68
2019-04-10T09:30:26.934Z,51.04
2019-04-10T09:31:27.006Z,51.01
2019-04-10T09:32:28.727Z,52.04
2019-04-10T09:33:30.534Z,50.78
2019-04-10T09:34:28.640Z,51.70
2019-04-10T09:35:28.955Z,51.18
2019-04-10T09:36:30.724Z,51.53
2019-04-10T09:37:32.512Z,51.63
2019-04-10T09:38:30.927Z,49.81
2019-04-10T09:39:32.393Z,50.65
2019-04-10T09:40:32.803Z,52.10
2019-04-10T09:41:34.195Z,51.04
2019-04-10T09:42:33.278Z,51.72
2019-04-10T09:43:33.883Z,51.63
2019-04-10T09:44:34.341Z,51.25
2019-04-10T09:45:35.776Z,51.44
2019-04-10T09:46:37.296Z,52.16
2019-04-10T09:47:36.001Z,51.08
2019-04-10T09:48:35.983Z,51.11
2019-04-10T09:49:42.008Z,52.17
2019-04-10T09:50:37.238Z,51.96
2019-04-10T09:51:38.972Z,52.71
2019-04-10T09:52:39.747Z,52.15
2019-04-10T09:53:39.266Z,51.94
2019-04-10T09:54:40.442Z,51.27
2019-04-10T09:55:40.517Z,50.63
2019-04-10T09:56:41.774Z,50.26
2019-04-10T09:57:41.413Z,51.60
2019-04-10T09:58:43.243Z,51.51
2019-04-10T09:59:45.612Z,51.08
2019-04-10T10:00:43.786Z,51.09
2019-04-10T10:01:44.488Z,51.24
2019-04-10T10:02:45.271Z,50.95
2019-04-10T10:03:45.418Z,51.36
2019-04-10T10:04:46.046Z,50.95
2019-04-10T10:05:46.736Z,50.68
2019-04-10T10:06:47.385Z,50.54
2019-04-10T10:07:48.652Z,50.47
2019-04-10T10:08:48.204Z,50.72
2019-04-10T10:09:49.629Z,51.25
2019-04-10T10:10:50.317Z,50.07
2019-04-10T10:11:51.341Z,50.69
2019-04-10T10:12:50.574Z,51.20
2019-04-10T10:13:50.848Z,51.02
2019-04-10T10:14:52.500Z,52.58
2019-04-10T10:15:53.100Z,51.63
2019-04-10T10:16:53.534Z,51.38
2019-04-10T10:17:55.006Z,52.73
2019-04-10T10:18:53.999Z,52.76
2019-04-10T10:19:55.291Z,53.74
2019-04-10T10:20:54.702Z,53.45
2019-04-10T10:21:56.798Z,52.36
2019-04-10T10:22:56.339Z,52.74
2019-04-10T10:23:58.235Z,51.33
2019-04-10T10:24:57.800Z,52.22
2019-04-10T10:25:57.891Z,51.84
2019-04-10T10:26:59.826Z,51.97
2019-04-10T10:27:58.978Z,51.85
2019-04-10T10:29:00.765Z,51.81
2019-04-10T10:30:00.347Z,50.63
2019-04-10T10:31:02.265Z,50.32
2019-04-10T10:32:03.147Z,50.82
2019-04-10T10:33:03.628Z,51.74
2019-04-10T10:34:03.815Z,50.40
2019-04-10T10:35:03.626Z,50.19
2019-04-10T10:36:05.438Z,50.29
2019-04-10T10:37:04.764Z,50.82
2019-04-10T10:38:07.407Z,50.53
2019-04-10T10:39:11.191Z,51.46
2019-04-10T10:40:06.149Z,52.09
2019-04-10T10:41:08.792Z,52.25
2019-04-10T10:42:07.622Z,51.29
2019-04-10T10:43:07.938Z,51.43
2019-04-10T10:44:08.988Z,51.33
2019-04-10T10:45:10.291Z,51.12
2019-04-10T10:46:09.404Z,50.95
2019-04-10T10:46:17.944Z,50.36
2019-04-10T10:47:20.144Z,50.38
2019-04-10T10:48:19.869Z,49.45
2019-04-10T10:49:20.145Z,49.28
2019-04-10T10:50:19.836Z,49.39
2019-04-10T10:51:22.521Z,49.58
2019-04-10T10:52:21.574Z,50.96
2019-04-10T10:53:21.971Z,50.26
2019-04-10T10:54:23.016Z,50.04
2019-04-10T10:55:23.293Z,50.23
2019-04-10T10:56:23.181Z,50.24
2019-04-10T10:57:24.852Z,51.21
2019-04-10T10:58:24.386Z,51.15
2019-04-10T10:59:27.233Z,50.84
2019-04-10T11:00:25.920Z,50.46
2019-04-10T11:01:27.774Z,51.08
2019-04-10T11:02:29.567Z,51.31
2019-04-10T11:03:27.954Z,51.55
2019-04-10T11:04:29.744Z,49.73
2019-04-10T11:05:31.832Z,50.40
2019-04-10T11:06:30.958Z,50.08
2019-04-10T11:07:31.306Z,50.48
2019-04-10T11:08:31.234Z,49.87
2019-04-10T11:09:32.384Z,50.73
2019-04-10T11:10:32.162Z,51.01
2019-04-10T11:11:34.729Z,50.61
2019-04-10T11:12:34.120Z,49.18
2019-04-10T11:13:34.735Z,49.99
2019-04-10T11:14:35.447Z,50.36
2019-04-10T11:15:36.785Z,50.13
2019-04-10T11:16:36.596Z,49.50
2019-04-10T11:17:36.430Z,50.50
2019-04-10T11:18:38.047Z,49.68
2019-04-10T11:19:37.157Z,48.62
2019-04-10T11:20:37.622Z,48.78
2019-04-10T11:21:39.215Z,48.58
2019-04-10T11:22:40.176Z,50.17
2019-04-10T11:23:40.608Z,49.65
2019-04-10T11:24:42.757Z,50.18
2019-04-10T11:25:41.233Z,50.15
2019-04-10T11:26:44.039Z,50.61
2019-04-10T11:27:42.705Z,49.60
2019-04-10T11:28:45.603Z,48.43
2019-04-10T11:29:45.383Z,48.79
2019-04-10T11:30:44.957Z,48.08
2019-04-10T11:31:45.767Z,47.87
2019-04-10T11:32:46.280Z,49.05
2019-04-10T11:33:50.234Z,50.70
2019-04-10T11:34:46.741Z,48.54
2019-04-10T11:35:47.585Z,49.08
2019-04-10T11:36:50.943Z,49.43
2019-04-10T11:37:51.337Z,47.99
2019-04-10T11:38:49.284Z,47.79
2019-04-10T11:39:50.793Z,47.78
2019-04-10T11:40:49.831Z,48.33
2019-04-10T11:41:50.561Z,50.14
2019-04-10T11:42:52.682Z,48.10
2019-04-10T11:43:52.661Z,48.46
2019-04-10T11:44:54.458Z,49.23
2019-04-10T11:45:56.179Z,48.72
2019-04-10T11:46:55.611Z,49.66
2019-04-10T11:47:56.134Z,48.41
2019-04-10T11:48:56.250Z,49.03
2019-04-10T11:49:57.608Z,50.56
2019-04-10T11:51:00.693Z,49.94
2019-04-10T11:51:59.951Z,49.95
2019-04-10T11:53:00.350Z,48.99
2019-04-10T11:54:01.213Z,49.92
2019-04-10T11:55:08.770Z,49.85
2019-04-10T11:56:04.725Z,50.12
2019-04-10T11:57:03.230Z,49.87
2019-04-10T11:58:01.083Z,49.79
2019-04-10T11:59:04.422Z,48.40
2019-04-10T12:00:04.139Z,48.49
2019-04-10T12:01:05.277Z,48.43
2019-04-10T12:02:06.464Z,48.31
2019-04-10T12:03:04.801Z,49.16
2019-04-10T12:04:06.706Z,49.62
2019-04-10T12:05:11.029Z,49.07
2019-04-10T12:06:06.293Z,49.49
2019-04-10T12:07:09.116Z,48.68
2019-04-10T12:08:33.642Z,48.84
2019-04-10T12:09:29.045Z,48.07
2019-04-10T12:11:13.881Z,48.91
2019-04-10T12:12:09.550Z,48.52
2019-04-10T12:13:12.336Z,49.04
2019-04-10T12:14:11.108Z,47.72
2019-04-10T12:15:12.247Z,46.46
2019-04-10T12:16:12.578Z,48.37
2019-04-10T12:17:12.180Z,48.49
2019-04-10T12:18:14.174Z,47.18
2019-04-10T12:19:13.538Z,46.88
2019-04-10T12:20:14.934Z,47.79
2019-04-10T12:21:15.737Z,46.92
2019-04-10T12:22:15.752Z,47.68
2019-04-10T12:23:16.673Z,48.25
2019-04-10T12:24:16.277Z,47.52
2019-04-10T12:25:18.661Z,48.18
2019-04-10T12:26:17.908Z,46.94
2019-04-10T12:27:18.323Z,46.77
2019-04-10T12:28:20.149Z,45.97
2019-04-10T12:29:19.453Z,46.82
2019-04-10T12:30:21.727Z,46.73
2019-04-10T12:31:20.956Z,47.11
2019-04-10T12:32:23.011Z,47.14
2019-04-10T12:32:31.287Z,47.70
2019-04-10T12:33:33.742Z,47.43
2019-04-10T12:34:32.458Z,47.06
2019-04-10T12:35:34.234Z,47.85
2019-04-10T12:36:34.830Z,48.06
2019-04-10T12:37:35.482Z,48.33
2019-04-10T12:38:36.055Z,48.02
2019-04-10T12:39:36.350Z,47.50
2019-04-10T12:40:37.961Z,48.68
2019-04-10T12:41:36.573Z,47.85
2019-04-10T12:42:38.700Z,48.18
2019-04-10T12:43:37.851Z,47.74
2019-04-10T12:44:39.502Z,47.49
2019-04-10T12:45:38.887Z,47.89
2019-04-10T12:46:41.536Z,47.83
2019-04-10T12:47:40.244Z,48.34
2019-04-10T12:48:41.686Z,47.69
2019-04-10T12:49:43.468Z,47.97
2019-04-10T12:50:41.769Z,48.55
2019-04-10T12:51:43.700Z,48.48
2019-04-10T12:52:42.914Z,48.46
2019-04-10T12:53:43.582Z,48.36